Penitas, Texas
Current Conditions -  °F | °C
As of 1:53 PM on Sunday 23 Nov 2014 (Local Time) from KMFE Reporting Station
Clear Clear  
Wind Chill: 84°   Ceiling: Unl
Heat Index: 84°   Visibility: 10mi
Dew Point: 53°   Wind: 8mph
Humidity: 34%   Direction: 180°S
Pressure: 29.65"   Gusts: NA
Location:  26.23°N, 98.44°W
Report Text: KMFE 231953Z 18007KT 10SM CLR 29/12 A2965 RMK AO2 SLP040 T02890117
Loading
Personal Weather Stations






























Interactive Weather Map New forecast layout! Learn more

10-Day Weather Forecast

Advertisements
Track Severe Weather on mobile